Hauptseite
METAR-TAF:

METAR-TAF

Flughäfen :

Braunschweig, Deutschland

Flughafen Braunschweig-Wolfsburg

Breite: 52-18N, Länge: 010-27E, Höhe: 81 m

Beobachtung

Neuester Wetterbericht von vor 32 Minuten, um 06:20 UTC
Wind 4 kt aus Ost
Temperatur 10°C
Luftfeuchtigkeit 100%
Luftdruck 1010 hPa
Sichtweite: 9000 m

METAR: EDVE 200620Z 09004KT 9000 NSC 10/10 Q1010

Zeit: 08:52 (06:52 UTC)

Prognose

Neuester Wetterbericht von vor 1 Stunde und 52 Minuten, um 05:00 UTC
Gültige Prognose vom 20 um 06 UTC bis 20 um 15 UTC
Wind 4 kt aus Südost
Sichtweite 10 km oder mehr
Aufgelockert bewölkt in der Höhe von 4000 ft
Übergehend zu
vom 20 um 11 UTC bis 20 um 13 UTC
Wind 5 kt aus Süd/Südwest

TAF: EDVE 200500Z 2006/2015 14004KT 9999 SCT040 BECMG 2011/2013 21005KT

Wetterbeobachtungen und Prognosen von mehr als 4000 Flughäfen (METAR und TAF Bericht).

Die verfügbaren Stationen werden durch gelbe und rote Markierungen auf der Karte dargestellt.

Führen Sie die Maus auf sie, um den Namen der Station zu sehen.

Darauf klicken, um die Beobachtung von Wetterbeobachtungen und Prognosen zu sehen.

Um die Karte zu ändern : klicken Sie auf den grünen Tasten mit einem schwarzen Kreuz Zum Vergrößern, auf den grünen Button mit einem Gedankenstrich zu verkleinern, oder auf die grünen Pfeile für benachbarte Karten.


METAR-TAF: